Latest Weather Observations for Aireys Inlet

IDV60801

Issued at 1:02 pm EST Sunday 30 August 2015 (issued every 30 minutes, with the page automatically refreshed every 10 minutes)

About weather observations | Map of weather stations | Latest weather observations for VIC | Other Formats
Station Details ID: 090180 Name: AIREYS INLET Lat: -38.46 Lon: 144.09 Height: 95.0 m
Data from the previous 72 hours. | See also: Recent months at Aireys Inlet
Date/Time
EST
Temp
°C
App
Temp
°C
Dew
Point
Rel
Hum
%
Delta-T
°C
Wind Press
QNH
hPa
Press
MSL
hPa
Rain
since 9 am
mm
Dir
 
Spd
km/h
Gust
km/h
Spd
kts
Gust
kts
30/01:00pm 11.4 6.4 4.6 63 3.1 SSW 20 30 11 16 - - 0.0
30/12:30pm 11.5 6.1 4.5 62 3.2 SW 22 33 12 18 - - 0.0
30/12:00pm 12.3 7.4 5.2 62 3.3 SW 20 30 11 16 - - 0.0
30/11:30am 10.7 5.5 5.5 70 2.4 SW 22 33 12 18 - - 0.0
30/11:00am 10.3 5.0 5.1 70 2.4 SW 22 35 12 19 - - 0.0
30/10:30am 10.3 5.5 5.5 72 2.2 SSW 20 33 11 18 - - 0.0
30/10:00am 9.9 4.6 5.1 72 2.2 SSW 22 33 12 18 - - 0.0
30/09:30am 9.8 4.1 5.0 72 2.2 SSW 24 37 13 20 - - 0.0
30/09:00am 9.7 4.3 4.3 69 2.4 SSW 22 35 12 19 - - 0.6
30/08:30am 9.4 3.2 4.4 71 2.2 SSW 26 39 14 21 - - 0.6
30/08:00am 9.3 3.2 4.7 73 2.1 SSW 26 39 14 21 - - 0.6
30/07:30am 9.2 2.6 4.0 70 2.3 SSW 28 41 15 22 - - 0.6
30/07:00am 9.1 2.7 5.3 77 1.7 SSW 28 41 15 22 - - 0.6
30/06:30am 8.8 3.1 5.0 77 1.7 SSW 24 37 13 20 - - 0.6
30/06:00am 9.2 3.1 4.6 73 2.1 SSW 26 37 14 20 - - 0.6
30/05:30am 8.9 3.1 4.5 74 2.0 SSW 24 35 13 19 - - 0.6
30/05:00am 9.0 2.9 4.8 75 1.9 SSW 26 35 14 19 - - 0.6
30/04:30am 9.0 2.9 5.0 76 1.8 SSW 26 44 14 24 - - 0.6
30/04:00am 8.8 3.1 4.8 76 1.8 SSW 24 35 13 19 - - 0.6
30/03:30am 8.9 3.2 4.7 75 1.9 S 24 35 13 19 - - 0.6
30/03:00am 8.9 3.7 5.3 78 1.6 SSW 22 33 12 18 - - 0.6
30/02:30am 8.8 3.7 5.9 82 1.3 SSW 22 37 12 20 - - 0.6
30/02:00am 9.0 2.7 5.7 80 1.5 SSW 28 39 15 21 - - 0.6
30/01:30am 8.3 3.6 5.9 85 1.1 S 20 33 11 18 - - 0.6
30/01:00am 8.7 4.0 7.6 93 0.5 SW 22 32 12 17 - - 0.6
30/12:30am 8.3 2.1 6.3 87 0.9 SSW 28 39 15 21 - - 0.6
30/12:00am 8.3 3.7 6.6 89 0.8 SSW 20 39 11 21 - - 0.6
 
Date/Time
EST
Temp
°C
App
Temp
°C
Dew
Point
Rel
Hum
%
Delta-T
°C
Wind Press
QNH
hPa
Press
MSL
hPa
Rain
since 9 am
mm
Dir
 
Spd
km/h
Gust
km/h
Spd
kts
Gust
kts
29/11:30pm 8.6 2.3 7.5 93 0.5 SSW 30 46 16 25 - - 0.6
29/11:00pm 8.8 2.5 5.9 82 1.3 SSW 28 44 15 24 - - 0.6
29/10:30pm 8.7 2.6 6.7 87 0.9 SSW 28 44 15 24 - - 0.6
29/10:09pm 9.0 3.1 7.5 90 0.7 SSW 28 48 15 26 - - 0.4
29/10:00pm 8.9 3.2 6.7 86 1.0 SSW 26 44 14 24 - - 0.4
29/09:30pm 8.7 2.5 6.0 83 1.2 SW 28 43 15 23 - - 0.4
29/09:00pm 8.7 1.9 7.6 93 0.5 SW 33 56 18 30 - - 0.4
29/08:52pm 8.9 2.6 7.2 89 0.8 SSW 30 56 16 30 - - 0.2
29/08:30pm 8.9 2.9 7.2 89 0.8 SW 28 46 15 25 - - 0.2
29/08:00pm 8.9 3.7 7.2 89 0.8 SW 24 35 13 19 - - 0.2
29/07:30pm 9.1 3.6 7.4 89 0.8 SSW 26 39 14 21 - - 0.0
29/07:04pm 9.2 2.5 7.3 88 0.9 SSW 32 50 17 27 - - 0.0
29/07:00pm 9.5 3.2 7.3 86 1.0 SSW 30 48 16 26 - - 0.0
29/06:30pm 9.3 3.4 7.7 90 0.8 SW 28 43 15 23 - - 0.0
29/06:00pm 9.8 3.3 6.7 81 1.5 SSW 30 44 16 24 - - 0.0
29/05:30pm 9.1 2.4 7.5 90 0.8 SW 32 44 17 24 - - 0.0
29/05:00pm 9.8 3.9 7.7 87 1.0 SW 28 43 15 23 - - 0.0
29/04:30pm 9.3 3.0 7.4 88 0.9 SW 30 46 16 25 - - 0.0
29/04:00pm 10.2 3.9 7.4 83 1.3 SW 30 44 16 24 - - 0.0
29/03:42pm 9.7 4.0 8.3 91 0.7 SW 28 46 15 25 - - 0.0
29/03:30pm 9.3 2.6 8.1 92 0.6 SW 33 44 18 24 - - 0.0
29/03:00pm 10.0 4.2 7.9 87 1.0 SSW 28 39 15 21 - - 0.0
29/02:30pm 9.9 2.4 6.1 77 1.8 SW 35 61 19 33 - - 0.0
29/02:09pm 10.4 3.9 6.7 78 1.7 SSW 30 50 16 27 - - 0.0
29/02:00pm 11.2 4.4 6.7 74 2.1 SW 32 46 17 25 - - 0.0
29/01:50pm 11.0 3.6 6.6 74 2.1 SW 35 54 19 29 - - 0.0
29/01:30pm 11.3 3.8 6.2 71 2.4 SW 35 48 19 26 - - 0.0
29/01:00pm 11.3 3.5 6.8 74 2.1 SW 37 52 20 28 - - 0.0
29/12:36pm 10.1 3.2 6.6 79 1.6 SW 32 50 17 27 - - 0.0
29/12:30pm 10.1 2.7 6.8 80 1.6 SSW 35 50 19 27 - - 0.0
29/12:00pm 10.5 3.4 6.5 76 1.9 SW 33 54 18 29 - - 0.0
29/11:58am 10.8 3.3 6.4 74 2.1 SW 35 54 19 29 - - 0.0
29/11:30am 9.9 3.0 6.3 78 1.7 SSW 32 44 17 24 - - 0.0
29/11:02am 10.0 2.4 5.8 75 1.9 SW 35 54 19 29 - - 0.0
29/11:00am 9.9 2.3 5.7 75 1.9 SW 35 54 19 29 - - 0.0
29/10:32am 9.4 2.7 5.8 78 1.7 SSW 30 48 16 26 - - 0.0
29/10:30am 9.4 2.4 5.9 79 1.6 SSW 32 48 17 26 - - 0.0
29/10:00am 9.4 2.2 5.2 75 1.9 SSW 32 46 17 25 - - 0.0
29/09:30am 8.5 1.2 5.4 81 1.4 SW 33 50 18 27 - - 0.0
29/09:15am 9.2 2.3 4.4 72 2.1 SSW 30 50 16 27 - - 0.0
29/09:00am 8.9 2.5 5.1 77 1.7 SW 28 44 15 24 - - 0.4
29/08:44am 8.8 2.3 4.6 75 1.9 SW 28 48 15 26 - - 0.4
29/08:30am 8.7 1.7 4.3 74 1.9 SW 30 43 16 23 - - 0.4
29/08:19am 8.8 2.2 4.2 73 2.0 SW 28 46 15 25 - - 0.4
29/08:00am 8.4 1.4 4.2 75 1.8 SW 30 46 16 25 - - 0.4
29/07:30am 8.0 1.8 4.2 77 1.7 SW 26 35 14 19 - - 0.4
29/07:01am 8.2 1.5 3.5 72 2.0 SSW 28 52 15 28 - - 0.4
29/07:00am 8.1 1.3 3.2 71 2.1 SSW 28 43 15 23 - - 0.4
29/06:30am 8.3 1.3 1.7 63 2.7 SSW 28 44 15 24 - - 0.4
29/06:02am 8.3 1.3 1.7 63 2.7 SSW 28 54 15 29 - - 0.4
29/06:00am 8.3 1.6 1.7 63 2.7 SSW 26 39 14 21 - - 0.4
29/05:30am 8.2 0.7 0.9 60 3.0 SSW 30 44 16 24 - - 0.4
29/05:00am 7.9 1.5 0.9 61 2.8 SSW 24 39 13 21 - - 0.4
29/04:30am 7.7 1.7 1.3 64 2.6 SSW 22 33 12 18 - - 0.4
29/04:00am 7.5 1.0 0.0 59 2.9 SSW 24 35 13 19 - - 0.4
29/03:30am 7.8 0.6 0.5 60 2.9 S 28 41 15 22 - - 0.4
29/03:00am 7.8 0.7 1.4 64 2.6 SSW 28 41 15 22 - - 0.4
29/02:30am 7.7 0.9 1.1 63 2.7 S 26 35 14 19 - - 0.4
29/02:00am 8.0 1.5 0.3 58 3.1 S 24 39 13 21 - - 0.4
29/01:30am 8.0 1.1 0.0 57 3.2 S 26 39 14 21 - - 0.4
29/01:01am 8.0 0.6 -0.7 54 3.4 S 28 46 15 25 - - 0.4
29/01:00am 8.0 0.2 -0.7 54 3.4 S 30 46 16 25 - - 0.4
29/12:54am 8.3 1.1 0.8 59 3.0 S 28 46 15 25 - - 0.4
29/12:30am 8.3 0.9 -0.7 53 3.5 S 28 43 15 23 - - 0.4
29/12:00am 8.4 1.2 0.9 59 3.0 S 28 44 15 24 - - 0.4
 
Date/Time
EST
Temp
°C
App
Temp
°C
Dew
Point
Rel
Hum
%
Delta-T
°C
Wind Press
QNH
hPa
Press
MSL
hPa
Rain
since 9 am
mm
Dir
 
Spd
km/h
Gust
km/h
Spd
kts
Gust
kts
28/11:30pm 8.4 0.9 1.1 60 3.0 S 30 44 16 24 - - 0.4
28/11:00pm 8.4 0.7 2.2 65 2.6 SSW 32 43 17 23 - - 0.4
28/10:30pm 8.4 1.4 1.8 63 2.7 SSW 28 41 15 22 - - 0.4
28/10:00pm 8.1 0.7 1.9 65 2.6 SSW 30 44 16 24 - - 0.4
28/09:30pm 8.6 0.8 2.8 67 2.5 SSW 33 46 18 25 - - 0.4
28/09:00pm 8.3 1.7 2.1 65 2.6 SSW 26 41 14 22 - - 0.4
28/08:30pm 8.4 1.7 1.6 62 2.8 SSW 26 37 14 20 - - 0.4
28/08:00pm 8.5 1.4 1.6 62 2.8 S 28 43 15 23 - - 0.4
28/07:39pm 8.2 1.1 1.1 61 2.9 SSW 28 46 15 25 - - 0.4
28/07:30pm 8.3 1.1 0.8 59 3.0 SSW 28 46 15 25 - - 0.4
28/07:00pm 8.3 1.2 1.5 62 2.8 S 28 43 15 23 - - 0.4
28/06:30pm 8.2 1.1 1.1 61 2.9 S 28 39 15 21 - - 0.4
28/06:00pm 8.4 1.0 2.0 64 2.7 SSW 30 43 16 23 - - 0.4
28/05:30pm 8.9 1.9 1.8 61 3.0 SSW 28 43 15 23 - - 0.4
28/05:00pm 9.5 2.2 2.4 61 3.0 SSW 30 46 16 25 - - 0.4
28/04:30pm 10.1 3.4 3.4 63 2.9 SSW 28 39 15 21 - - 0.4
28/04:00pm 10.8 4.9 4.0 63 3.0 SSW 24 37 13 20 - - 0.4
28/03:30pm 10.6 4.3 3.9 63 3.0 SSW 26 41 14 22 - - 0.4
28/03:00pm 10.2 4.0 4.4 67 2.6 S 26 39 14 21 - - 0.4
28/02:30pm 10.3 4.2 4.9 69 2.4 S 26 37 14 20 - - 0.4
28/02:00pm 10.2 4.3 5.6 73 2.1 SSW 26 37 14 20 - - 0.4
28/01:30pm 10.5 5.1 6.5 76 1.9 S 24 35 13 19 - - 0.4
28/01:00pm 10.9 5.6 6.6 75 2.0 S 24 33 13 18 - - 0.4
28/12:30pm 10.3 5.9 7.5 83 1.3 S 20 35 11 19 - - 0.4
28/12:00pm 10.4 6.6 9.2 92 0.6 S 19 30 10 16 - - 0.2
28/11:30am 11.3 8.4 8.2 81 1.5 SSW 13 22 7 12 - - 0.0
28/11:00am 13.5 9.4 7.7 68 2.9 SSW 19 28 10 15 - - 0.0
28/10:30am 12.2 7.6 6.3 67 2.8 SSW 20 32 11 17 - - 0.0
28/10:00am 11.8 6.6 5.7 66 2.9 SSW 22 39 12 21 - - 0.0
28/09:30am 11.2 5.2 5.3 67 2.7 SSW 26 37 14 20 - - 0.0
28/09:00am 11.1 6.0 6.0 71 2.4 SSW 22 35 12 19 - - 0.2
28/08:30am 10.7 5.1 5.5 70 2.4 SSW 24 33 13 18 - - 0.2
28/08:00am 10.0 4.2 6.3 78 1.7 S 26 39 14 21 - - 0.2
28/07:30am 9.8 4.4 6.3 79 1.6 SSW 24 35 13 19 - - 0.2
28/07:00am 9.6 4.3 6.9 83 1.3 S 24 33 13 18 - - 0.2
28/06:30am 9.6 4.1 5.8 77 1.7 SSW 24 35 13 19 - - 0.2
28/06:00am 9.3 4.8 6.9 85 1.1 SSW 20 35 11 19 - - 0.2
28/05:30am 8.7 3.4 6.8 88 0.9 SSW 24 41 13 22 - - 0.2
28/05:22am 8.7 2.7 7.0 89 0.8 SSW 28 48 15 26 - - 0.2
28/05:00am 8.6 4.0 6.7 88 0.9 SSW 20 32 11 17 - - 0.2
28/04:30am 8.5 4.1 7.6 94 0.4 SW 20 35 11 19 - - 0.2
28/04:00am 8.8 2.9 7.3 90 0.7 SW 28 43 15 23 - - 0.0
28/03:30am 9.1 3.3 6.4 83 1.3 SW 26 41 14 22 - - 0.0
28/03:00am 9.8 3.2 6.0 77 1.8 SSW 30 43 16 23 - - 0.0
28/02:30am 9.7 4.6 5.9 77 1.8 SSW 22 35 12 19 - - 0.0
28/02:00am 9.7 3.7 5.5 75 1.9 SSW 26 41 14 22 - - 0.0
28/01:30am 10.0 3.4 6.0 76 1.9 SSW 30 43 16 23 - - 0.0
28/01:00am 10.1 4.2 5.9 75 1.9 SSW 26 43 14 23 - - 0.0
28/12:30am 9.3 2.4 6.6 83 1.3 SSW 32 50 17 27 - - 0.0
28/12:22am 9.7 3.7 7.1 84 1.2 SSW 28 50 15 27 - - 0.0
28/12:00am 10.1 4.4 6.6 79 1.6 S 26 37 14 20 - - 0.0
 
Date/Time
EST
Temp
°C
App
Temp
°C
Dew
Point
Rel
Hum
%
Delta-T
°C
Wind Press
QNH
hPa
Press
MSL
hPa
Rain
since 9 am
mm
Dir
 
Spd
km/h
Gust
km/h
Spd
kts
Gust
kts
27/11:30pm 10.2 4.5 6.5 78 1.7 S 26 37 14 20 - - 0.0
27/11:00pm 10.2 3.6 6.2 76 1.9 SSW 30 43 16 23 - - 0.0
27/10:30pm 10.2 4.0 6.0 75 2.0 SSW 28 39 15 21 - - 0.0
27/10:00pm 10.6 4.0 6.2 74 2.1 SSW 30 48 16 26 - - 0.0
27/09:57pm 10.5 4.2 5.7 72 2.2 SSW 28 48 15 26 - - 0.0
27/09:30pm 10.6 4.5 6.7 77 1.8 SSW 28 41 15 22 - - 0.0
27/09:00pm 10.7 4.6 6.8 77 1.9 SSW 28 41 15 22 - - 0.0
27/08:30pm 10.9 5.5 8.1 83 1.4 S 26 37 14 20 - - 0.0
27/08:00pm 10.9 6.3 8.1 83 1.4 S 22 37 12 20 - - 0.0
27/07:30pm 10.8 6.4 8.9 88 0.9 S 22 37 12 20 - - 0.0
27/07:00pm 10.8 7.0 9.9 94 0.5 S 20 33 11 18 - - 0.0
27/06:30pm 11.1 7.9 10.0 93 0.6 SSW 17 24 9 13 - - 0.0
27/06:00pm 11.3 7.1 9.7 90 0.8 SSW 22 32 12 17 - - 0.0
27/05:30pm 11.7 8.2 10.3 91 0.7 SSW 19 30 10 16 - - 0.0
27/05:00pm 12.3 8.6 10.0 86 1.2 SSW 20 32 11 17 - - 0.0
27/04:30pm 12.9 9.2 10.3 84 1.4 SSW 20 32 11 17 - - 0.0
27/04:00pm 13.6 10.2 10.4 81 1.7 SW 19 32 10 17 - - 0.0
27/03:30pm 12.8 8.8 10.3 85 1.3 SSW 22 39 12 21 - - 0.0
27/03:00pm 12.6 8.1 10.0 84 1.3 SSW 24 35 13 19 - - 0.0
27/02:30pm 12.8 8.1 9.4 80 1.7 SW 24 37 13 20 - - 0.0
27/02:00pm 13.0 9.4 10.0 82 1.5 SSW 19 28 10 15 - - 0.0
27/01:30pm 12.6 8.8 9.8 83 1.4 SSW 20 32 11 17 - - 0.0

Other Formats:

Comma delimited format used in spreadsheet applications
http://www.bom.gov.au/fwo/IDV60801/IDV60801.94846.axf

JavaScript Object Notation format (JSON) in row-major order
http://www.bom.gov.au/fwo/IDV60801/IDV60801.94846.json